createdAt,value
2019-06-26T00:00:48.418Z,0.00
2019-06-26T00:01:48.446Z,0.00
2019-06-26T00:02:48.404Z,0.00
2019-06-26T00:03:48.400Z,0.00
2019-06-26T00:04:48.380Z,0.00
2019-06-26T00:05:48.394Z,0.00
2019-06-26T00:06:48.365Z,0.00
2019-06-26T00:07:48.368Z,0.00
2019-06-26T00:08:48.379Z,0.00
2019-06-26T00:09:48.329Z,0.00
2019-06-26T00:10:48.314Z,0.00
2019-06-26T00:11:48.313Z,0.00
2019-06-26T00:12:48.334Z,0.00
2019-06-26T00:13:48.306Z,0.00
2019-06-26T00:14:48.288Z,0.00
2019-06-26T00:15:48.300Z,0.00
2019-06-26T00:16:48.301Z,0.00
2019-06-26T00:17:48.300Z,0.00
2019-06-26T00:18:48.260Z,0.00
2019-06-26T00:19:48.284Z,0.00
2019-06-26T00:20:48.214Z,0.00
2019-06-26T00:21:48.198Z,0.00
2019-06-26T00:22:48.190Z,0.00
2019-06-26T00:23:48.239Z,0.00
2019-06-26T00:24:48.198Z,0.00
2019-06-26T00:25:48.166Z,0.00
2019-06-26T00:26:48.153Z,0.00
2019-06-26T00:27:48.123Z,0.00
2019-06-26T00:28:48.148Z,0.00
2019-06-26T00:29:48.151Z,0.00
2019-06-26T00:30:48.101Z,0.00
2019-06-26T00:31:48.106Z,0.00
2019-06-26T00:32:48.071Z,0.00
2019-06-26T00:33:48.084Z,0.00
2019-06-26T00:34:48.082Z,0.00
2019-06-26T00:35:48.064Z,0.00
2019-06-26T00:36:48.055Z,0.00
2019-06-26T00:37:48.032Z,0.00
2019-06-26T00:38:48.036Z,0.00
2019-06-26T00:39:48.066Z,0.00
2019-06-26T00:40:47.992Z,0.00
2019-06-26T00:41:47.989Z,0.00
2019-06-26T00:42:47.987Z,0.00
2019-06-26T00:43:47.952Z,0.00
2019-06-26T00:44:48.000Z,0.00
2019-06-26T00:45:47.941Z,0.00
2019-06-26T00:46:47.946Z,0.00
2019-06-26T00:47:47.935Z,0.00
2019-06-26T00:48:47.898Z,0.00
2019-06-26T00:49:47.910Z,0.00
2019-06-26T00:50:47.927Z,0.00
2019-06-26T00:51:47.879Z,0.00
2019-06-26T00:52:47.881Z,0.00
2019-06-26T00:53:47.890Z,0.00
2019-06-26T00:54:47.874Z,0.00
2019-06-26T00:55:47.877Z,0.00
2019-06-26T00:56:47.834Z,0.00
2019-06-26T00:57:47.803Z,0.00
2019-06-26T00:58:47.858Z,0.00
2019-06-26T00:59:48.692Z,0.00
2019-06-26T01:00:47.775Z,0.00
2019-06-26T01:01:47.844Z,0.00
2019-06-26T01:02:47.827Z,0.00
2019-06-26T01:03:47.741Z,0.00
2019-06-26T01:04:47.726Z,0.00
2019-06-26T01:05:47.736Z,0.00
2019-06-26T01:06:47.793Z,0.00
2019-06-26T01:07:47.716Z,0.00
2019-06-26T01:08:47.691Z,0.00
2019-06-26T01:09:47.786Z,0.00
2019-06-26T01:10:47.672Z,0.00
2019-06-26T01:11:47.761Z,0.00
2019-06-26T01:12:47.637Z,0.00
2019-06-26T01:13:57.810Z,0.00
2019-06-26T01:14:48.627Z,0.00
2019-06-26T01:15:47.620Z,0.00
2019-06-26T01:16:47.607Z,0.00
2019-06-26T01:17:47.629Z,0.00
2019-06-26T01:18:47.593Z,0.00
2019-06-26T01:19:48.182Z,0.00
2019-06-26T01:20:47.561Z,0.00
2019-06-26T01:21:47.622Z,0.00
2019-06-26T01:22:47.573Z,0.00
2019-06-26T01:23:47.530Z,0.00
2019-06-26T01:24:47.529Z,0.00
2019-06-26T01:25:47.568Z,0.00
2019-06-26T01:26:47.513Z,0.00
2019-06-26T01:27:47.518Z,0.00
2019-06-26T01:28:47.483Z,0.00
2019-06-26T01:29:47.535Z,0.00
2019-06-26T01:30:47.460Z,0.00
2019-06-26T01:31:47.445Z,0.00
2019-06-26T01:32:47.448Z,0.00
2019-06-26T01:33:47.446Z,0.00
2019-06-26T01:34:47.469Z,0.00
2019-06-26T01:35:47.406Z,0.00
2019-06-26T01:36:47.393Z,0.00
2019-06-26T01:37:47.397Z,0.00
2019-06-26T01:38:47.384Z,0.00
2019-06-26T01:39:47.373Z,0.00
2019-06-26T01:40:47.341Z,0.00
2019-06-26T01:41:47.340Z,0.00
2019-06-26T01:42:47.326Z,0.00
2019-06-26T01:43:47.323Z,0.00
2019-06-26T01:44:47.315Z,0.00
2019-06-26T01:45:47.340Z,0.00
2019-06-26T01:46:47.329Z,0.00
2019-06-26T01:47:47.297Z,0.00
2019-06-26T01:48:47.255Z,0.00
2019-06-26T01:49:47.268Z,0.00
2019-06-26T01:50:47.341Z,0.00
2019-06-26T01:51:47.437Z,0.00
2019-06-26T01:52:47.258Z,0.00
2019-06-26T01:53:47.229Z,0.00
2019-06-26T01:54:47.267Z,0.00
2019-06-26T01:55:47.205Z,0.00
2019-06-26T01:56:47.174Z,0.00
2019-06-26T01:57:47.176Z,0.00
2019-06-26T01:58:47.191Z,0.00
2019-06-26T01:59:47.199Z,0.00
2019-06-26T02:00:47.170Z,0.00
2019-06-26T02:01:47.122Z,0.00
2019-06-26T02:02:47.127Z,0.00
2019-06-26T02:03:47.119Z,0.00
2019-06-26T02:04:47.129Z,0.00
2019-06-26T02:05:47.340Z,0.00
2019-06-26T02:06:47.077Z,0.00
2019-06-26T02:07:47.074Z,0.00
2019-06-26T02:08:47.375Z,0.00
2019-06-26T02:09:47.056Z,0.00
2019-06-26T02:10:47.022Z,0.00
2019-06-26T02:11:47.135Z,0.00
2019-06-26T02:12:47.002Z,0.00
2019-06-26T02:13:47.012Z,0.00
2019-06-26T02:14:46.980Z,0.00
2019-06-26T02:15:46.967Z,0.00
2019-06-26T02:16:46.956Z,0.00
2019-06-26T02:17:46.957Z,0.00
2019-06-26T02:18:46.945Z,0.00
2019-06-26T02:19:46.963Z,0.00
2019-06-26T02:20:46.932Z,0.00
2019-06-26T02:21:46.992Z,0.00
2019-06-26T02:22:49.540Z,0.00
2019-06-26T02:23:46.903Z,0.00
2019-06-26T02:24:46.870Z,0.00
2019-06-26T02:25:46.862Z,0.00
2019-06-26T02:26:46.886Z,0.00
2019-06-26T02:27:46.902Z,0.00
2019-06-26T02:28:46.841Z,0.00
2019-06-26T02:29:46.838Z,0.00
2019-06-26T02:30:46.816Z,0.00
2019-06-26T02:31:46.859Z,0.00
2019-06-26T02:32:46.780Z,0.00
2019-06-26T02:33:46.820Z,0.00
2019-06-26T02:34:46.780Z,0.00
2019-06-26T02:35:46.762Z,0.00
2019-06-26T02:36:46.793Z,0.00
2019-06-26T02:37:46.765Z,0.00
2019-06-26T02:38:46.711Z,0.00
2019-06-26T02:39:46.752Z,0.00
2019-06-26T02:40:46.719Z,0.00
2019-06-26T02:41:46.697Z,0.00
2019-06-26T02:42:46.697Z,0.00
2019-06-26T02:43:46.728Z,0.00
2019-06-26T02:44:53.381Z,5.62
2019-06-26T02:45:47.639Z,5.62
2019-06-26T02:46:46.663Z,5.62
2019-06-26T02:47:46.634Z,5.62
2019-06-26T02:48:46.647Z,5.62
2019-06-26T02:49:46.611Z,5.62
2019-06-26T02:50:46.592Z,5.62
2019-06-26T02:51:46.693Z,5.62
2019-06-26T02:52:46.572Z,5.62
2019-06-26T02:53:46.651Z,5.62
2019-06-26T02:54:46.589Z,5.62
2019-06-26T02:55:46.576Z,11.25
2019-06-26T02:56:46.588Z,11.25
2019-06-26T02:57:46.540Z,11.25
2019-06-26T02:58:46.535Z,11.25
2019-06-26T02:59:46.548Z,11.25
2019-06-26T03:00:46.497Z,11.25
2019-06-26T03:01:46.489Z,16.88
2019-06-26T03:02:46.495Z,16.88
2019-06-26T03:03:46.469Z,16.88
2019-06-26T03:04:46.454Z,16.88
2019-06-26T03:05:46.487Z,16.88
2019-06-26T03:06:46.446Z,22.50
2019-06-26T03:07:46.431Z,22.50
2019-06-26T03:08:46.434Z,22.50
2019-06-26T03:09:46.425Z,22.50
2019-06-26T03:10:46.400Z,28.12
2019-06-26T03:11:46.385Z,28.12
2019-06-26T03:12:46.472Z,28.12
2019-06-26T03:13:46.360Z,33.75
2019-06-26T03:14:46.349Z,33.75
2019-06-26T03:15:50.190Z,39.38
2019-06-26T03:16:46.333Z,39.38
2019-06-26T03:17:55.423Z,39.38
2019-06-26T03:18:47.303Z,39.38
2019-06-26T03:19:46.286Z,39.38
2019-06-26T03:20:46.328Z,39.38
2019-06-26T03:21:46.271Z,39.38
2019-06-26T03:22:46.277Z,39.38
2019-06-26T03:23:46.273Z,39.38
2019-06-26T03:24:46.252Z,33.75
2019-06-26T03:25:46.283Z,33.75
2019-06-26T03:26:46.248Z,33.75
2019-06-26T03:27:46.228Z,33.75
2019-06-26T03:28:46.744Z,33.75
2019-06-26T03:29:46.276Z,39.38
2019-06-26T03:30:46.228Z,39.38
2019-06-26T03:31:46.240Z,39.38
2019-06-26T03:32:46.202Z,45.00
2019-06-26T03:33:46.145Z,45.00
2019-06-26T03:34:46.175Z,50.62
2019-06-26T03:35:46.171Z,50.62
2019-06-26T03:36:46.152Z,50.62
2019-06-26T03:37:46.122Z,50.62
2019-06-26T03:38:46.105Z,56.25
2019-06-26T03:39:46.090Z,56.25
2019-06-26T03:40:46.093Z,56.25
2019-06-26T03:41:46.106Z,56.25
2019-06-26T03:42:46.116Z,56.25
2019-06-26T03:43:46.055Z,56.25
2019-06-26T03:44:46.030Z,56.25
2019-06-26T03:45:46.108Z,56.25
2019-06-26T03:46:46.107Z,56.25
2019-06-26T03:47:46.035Z,61.88
2019-06-26T03:48:46.010Z,61.88
2019-06-26T03:49:45.979Z,67.50
2019-06-26T03:50:45.961Z,67.50
2019-06-26T03:51:46.008Z,67.50
2019-06-26T03:52:45.980Z,67.50
2019-06-26T03:53:45.977Z,67.50
2019-06-26T03:54:45.933Z,61.88
2019-06-26T03:55:45.942Z,61.88
2019-06-26T03:56:45.890Z,61.88
2019-06-26T03:57:45.904Z,61.88
2019-06-26T03:58:46.005Z,67.50
2019-06-26T03:59:45.889Z,67.50
2019-06-26T04:00:45.871Z,61.88
2019-06-26T04:01:45.846Z,67.50
2019-06-26T04:02:45.944Z,67.50
2019-06-26T04:03:45.875Z,67.50
2019-06-26T04:04:45.826Z,67.50
2019-06-26T04:05:45.820Z,67.50
2019-06-26T04:06:45.802Z,67.50
2019-06-26T04:07:45.791Z,67.50
2019-06-26T04:08:45.868Z,67.50
2019-06-26T04:09:45.756Z,67.50
2019-06-26T04:10:45.747Z,67.50
2019-06-26T04:11:46.768Z,67.50
2019-06-26T04:12:45.807Z,67.50
2019-06-26T04:13:45.754Z,67.50
2019-06-26T04:14:45.727Z,73.12
2019-06-26T04:15:45.699Z,73.12
2019-06-26T04:16:45.685Z,78.75
2019-06-26T04:17:45.789Z,78.75
2019-06-26T04:18:45.771Z,78.75
2019-06-26T04:19:45.728Z,84.38
2019-06-26T04:20:45.645Z,84.38
2019-06-26T04:21:45.663Z,84.38
2019-06-26T04:22:48.747Z,90.00
2019-06-26T04:23:45.605Z,90.00
2019-06-26T04:24:45.598Z,90.00
2019-06-26T04:25:45.598Z,84.38
2019-06-26T04:26:45.608Z,84.38
2019-06-26T04:27:45.567Z,84.38
2019-06-26T04:28:45.556Z,78.75
2019-06-26T04:29:45.573Z,84.38
2019-06-26T04:30:46.251Z,90.00
2019-06-26T04:31:45.524Z,90.00
2019-06-26T04:32:48.398Z,95.62
2019-06-26T04:33:45.555Z,95.62
2019-06-26T04:34:45.529Z,95.62
2019-06-26T04:35:47.298Z,95.62
2019-06-26T04:36:45.461Z,101.25
2019-06-26T04:37:46.025Z,101.25
2019-06-26T04:38:49.947Z,101.25
2019-06-26T04:39:45.443Z,106.88
2019-06-26T04:40:45.467Z,106.88
2019-06-26T04:41:45.446Z,106.88
2019-06-26T04:42:49.791Z,106.88
2019-06-26T04:43:56.883Z,106.88
2019-06-26T04:44:48.591Z,106.88
2019-06-26T04:45:57.753Z,112.50
2019-06-26T04:46:46.365Z,112.50
2019-06-26T04:47:45.435Z,112.50
2019-06-26T04:48:45.448Z,112.50
2019-06-26T04:49:48.102Z,112.50
2019-06-26T04:50:50.603Z,112.50
2019-06-26T04:51:49.110Z,112.50
2019-06-26T04:52:47.231Z,112.50
2019-06-26T04:53:48.026Z,112.50
2019-06-26T04:54:48.213Z,112.50
2019-06-26T04:55:46.257Z,112.50
2019-06-26T04:56:58.130Z,112.50
2019-06-26T04:57:45.255Z,118.12
2019-06-26T04:58:45.243Z,112.50
2019-06-26T04:59:45.214Z,118.12
2019-06-26T05:00:45.205Z,118.12
2019-06-26T05:01:45.203Z,118.12
2019-06-26T05:02:45.192Z,118.12
2019-06-26T05:03:45.219Z,118.12
2019-06-26T05:04:45.187Z,118.12
2019-06-26T05:05:45.373Z,118.12
2019-06-26T05:06:45.310Z,118.12
2019-06-26T05:07:45.687Z,118.12
2019-06-26T05:08:45.547Z,118.12
2019-06-26T05:09:47.417Z,118.12
2019-06-26T05:10:51.268Z,123.75
2019-06-26T05:11:45.975Z,123.75
2019-06-26T05:12:45.094Z,123.75
2019-06-26T05:13:45.063Z,123.75
2019-06-26T05:14:45.062Z,123.75
2019-06-26T05:15:45.066Z,123.75
2019-06-26T05:16:45.039Z,129.38
2019-06-26T05:17:45.041Z,129.38
2019-06-26T05:18:45.013Z,129.38
2019-06-26T05:19:45.057Z,129.38
2019-06-26T05:20:45.009Z,129.38
2019-06-26T05:21:45.033Z,135.00
2019-06-26T05:22:44.977Z,135.00
2019-06-26T05:23:44.983Z,135.00
2019-06-26T05:24:46.536Z,135.00
2019-06-26T05:25:45.050Z,135.00
2019-06-26T05:26:45.067Z,135.00
2019-06-26T05:27:44.920Z,135.00
2019-06-26T05:28:44.916Z,140.62
2019-06-26T05:29:44.921Z,140.62
2019-06-26T05:30:44.961Z,140.62
2019-06-26T05:31:44.941Z,140.62
2019-06-26T05:32:44.900Z,140.62
2019-06-26T05:33:44.899Z,140.62
2019-06-26T05:34:44.854Z,140.62
2019-06-26T05:37:03.307Z,146.25
2019-06-26T05:38:05.877Z,146.25
2019-06-26T05:39:04.218Z,146.25
2019-06-26T05:40:03.139Z,146.25
2019-06-26T05:41:03.034Z,146.25
2019-06-26T05:42:06.562Z,146.25
2019-06-26T05:44:20.432Z,151.88
2019-06-26T05:45:20.092Z,151.88
2019-06-26T05:46:30.592Z,151.88
2019-06-26T05:47:22.099Z,151.88
2019-06-26T05:48:20.005Z,151.88
2019-06-26T05:49:20.022Z,151.88
2019-06-26T05:50:19.969Z,151.88
2019-06-26T05:51:19.958Z,157.50
2019-06-26T05:52:20.015Z,157.50
2019-06-26T05:53:19.956Z,157.50
2019-06-26T05:54:19.962Z,157.50
2019-06-26T05:55:19.952Z,157.50
2019-06-26T05:56:19.926Z,157.50
2019-06-26T05:57:19.946Z,163.12
2019-06-26T05:58:19.954Z,163.12
2019-06-26T05:59:19.954Z,163.12
2019-06-26T06:00:19.931Z,163.12
2019-06-26T06:01:19.899Z,163.12
2019-06-26T06:02:19.903Z,163.12
2019-06-26T06:03:19.865Z,168.75
2019-06-26T06:04:19.861Z,168.75
2019-06-26T06:05:19.850Z,168.75
2019-06-26T06:06:19.842Z,168.75
2019-06-26T06:07:19.833Z,168.75
2019-06-26T06:08:19.833Z,168.75
2019-06-26T06:09:19.795Z,168.75
2019-06-26T06:10:19.781Z,168.75
2019-06-26T06:11:19.948Z,174.38
2019-06-26T06:12:19.761Z,174.38
2019-06-26T06:13:19.751Z,174.38
2019-06-26T06:14:19.755Z,174.38
2019-06-26T06:15:19.741Z,174.38
2019-06-26T06:16:19.757Z,174.38
2019-06-26T06:17:19.705Z,180.00
2019-06-26T06:18:19.692Z,180.00
2019-06-26T06:19:19.812Z,180.00
2019-06-26T06:20:19.744Z,180.00
2019-06-26T06:21:19.659Z,180.00
2019-06-26T06:22:19.655Z,185.62
2019-06-26T06:23:19.709Z,191.25
2019-06-26T06:24:19.703Z,185.62
2019-06-26T06:25:21.486Z,185.62
2019-06-26T06:26:19.669Z,185.62
2019-06-26T06:27:19.602Z,185.62
2019-06-26T06:28:19.622Z,191.25
2019-06-26T06:29:19.651Z,191.25
2019-06-26T06:30:19.584Z,191.25
2019-06-26T06:31:19.546Z,191.25
2019-06-26T06:32:19.548Z,191.25
2019-06-26T06:33:19.535Z,196.88
2019-06-26T06:34:19.512Z,196.88
2019-06-26T06:35:19.556Z,196.88
2019-06-26T06:36:19.532Z,202.50
2019-06-26T06:37:19.493Z,196.88
2019-06-26T06:38:19.479Z,196.88
2019-06-26T06:39:19.481Z,202.50
2019-06-26T06:40:19.450Z,202.50
2019-06-26T06:41:19.496Z,202.50
2019-06-26T06:42:19.422Z,202.50
2019-06-26T06:43:19.423Z,202.50
2019-06-26T06:44:19.422Z,202.50
2019-06-26T06:45:19.472Z,202.50
2019-06-26T06:46:19.435Z,202.50
2019-06-26T06:47:19.377Z,202.50
2019-06-26T06:48:19.387Z,202.50
2019-06-26T06:49:19.363Z,202.50
2019-06-26T06:50:19.392Z,202.50
2019-06-26T06:51:19.359Z,208.12
2019-06-26T06:52:19.339Z,208.12
2019-06-26T06:53:19.333Z,208.12
2019-06-26T06:54:19.387Z,208.12
2019-06-26T06:55:19.352Z,208.12
2019-06-26T06:56:19.330Z,213.75
2019-06-26T06:57:19.309Z,213.75
2019-06-26T06:58:19.281Z,213.75
2019-06-26T06:59:19.248Z,213.75
2019-06-26T07:00:19.256Z,213.75
2019-06-26T07:01:19.232Z,213.75
2019-06-26T07:02:19.227Z,219.38
2019-06-26T07:03:19.299Z,219.38
2019-06-26T07:04:19.262Z,219.38
2019-06-26T07:05:19.214Z,219.38
2019-06-26T07:06:19.190Z,225.00
2019-06-26T07:07:19.266Z,225.00
2019-06-26T07:08:19.189Z,225.00
2019-06-26T07:09:19.192Z,225.00
2019-06-26T07:10:19.163Z,225.00
2019-06-26T07:11:19.154Z,225.00
2019-06-26T07:12:20.919Z,225.00
2019-06-26T07:13:19.127Z,230.62
2019-06-26T07:14:19.120Z,230.62
2019-06-26T07:15:19.104Z,230.62
2019-06-26T07:16:19.103Z,230.62
2019-06-26T07:17:21.105Z,230.62
2019-06-26T07:18:19.133Z,230.62
2019-06-26T07:19:19.055Z,236.25
2019-06-26T07:20:19.064Z,236.25
2019-06-26T07:21:19.058Z,236.25
2019-06-26T07:22:19.026Z,236.25
2019-06-26T07:23:19.086Z,236.25
2019-06-26T07:24:19.003Z,236.25
2019-06-26T07:25:19.003Z,241.88
2019-06-26T07:26:19.015Z,241.88
2019-06-26T07:27:18.962Z,241.88
2019-06-26T07:28:19.029Z,241.88
2019-06-26T07:29:18.996Z,241.88
2019-06-26T07:30:18.941Z,247.50
2019-06-26T07:31:18.992Z,247.50
2019-06-26T07:32:18.908Z,247.50
2019-06-26T07:33:18.907Z,247.50
2019-06-26T07:34:18.916Z,247.50
2019-06-26T07:35:18.878Z,247.50
2019-06-26T07:36:18.891Z,253.12
2019-06-26T07:37:18.903Z,253.12
2019-06-26T07:38:18.879Z,253.12
2019-06-26T07:39:18.848Z,253.12
2019-06-26T07:40:18.833Z,253.12
2019-06-26T07:41:18.820Z,258.75
2019-06-26T07:42:18.826Z,258.75
2019-06-26T07:43:18.835Z,258.75
2019-06-26T07:44:18.794Z,258.75
2019-06-26T07:45:18.819Z,258.75
2019-06-26T07:46:18.785Z,258.75
2019-06-26T07:47:23.518Z,258.75
2019-06-26T07:48:19.755Z,264.38
2019-06-26T07:49:18.756Z,264.38
2019-06-26T07:50:18.755Z,264.38
2019-06-26T07:51:18.993Z,264.38
2019-06-26T07:52:18.699Z,264.38
2019-06-26T07:53:18.763Z,264.38
2019-06-26T07:54:18.704Z,270.00
2019-06-26T07:55:18.714Z,270.00
2019-06-26T07:56:18.679Z,275.62
2019-06-26T07:57:19.398Z,270.00
2019-06-26T07:58:18.671Z,270.00
2019-06-26T07:59:19.016Z,270.00
2019-06-26T08:00:18.646Z,270.00
2019-06-26T08:01:18.637Z,270.00
2019-06-26T08:02:18.625Z,270.00
2019-06-26T08:03:18.660Z,270.00
2019-06-26T08:04:18.583Z,270.00
2019-06-26T08:05:18.578Z,270.00
2019-06-26T08:06:18.594Z,275.62
2019-06-26T08:07:18.565Z,275.62
2019-06-26T08:08:19.005Z,275.62
2019-06-26T08:09:18.525Z,275.62
2019-06-26T08:10:18.562Z,275.62
2019-06-26T08:11:18.510Z,275.62
2019-06-26T08:12:18.502Z,281.25
2019-06-26T08:13:18.554Z,281.25
2019-06-26T08:14:18.498Z,281.25
2019-06-26T08:15:18.551Z,281.25
2019-06-26T08:16:18.460Z,281.25
2019-06-26T08:17:18.491Z,286.88
2019-06-26T08:18:18.549Z,286.88
2019-06-26T08:19:18.442Z,286.88
2019-06-26T08:20:18.434Z,286.88
2019-06-26T08:21:18.414Z,286.88
2019-06-26T08:22:18.613Z,286.88
2019-06-26T08:23:18.392Z,286.88
2019-06-26T08:24:18.377Z,292.50
2019-06-26T08:25:18.379Z,292.50
2019-06-26T08:26:18.373Z,292.50
2019-06-26T08:27:18.367Z,292.50
2019-06-26T08:28:18.340Z,292.50
2019-06-26T08:29:18.407Z,298.12
2019-06-26T08:30:18.399Z,298.12
2019-06-26T08:31:18.326Z,298.12
2019-06-26T08:32:18.342Z,298.12
2019-06-26T08:33:18.295Z,298.12
2019-06-26T08:34:18.331Z,298.12
2019-06-26T08:35:18.380Z,298.12
2019-06-26T08:36:18.318Z,298.12
2019-06-26T08:37:18.343Z,303.75
2019-06-26T08:38:18.229Z,303.75
2019-06-26T08:39:18.257Z,309.38
2019-06-26T08:40:18.442Z,309.38
2019-06-26T08:41:18.210Z,309.38
2019-06-26T08:42:18.247Z,309.38
2019-06-26T08:43:18.205Z,315.00
2019-06-26T08:44:18.166Z,315.00
2019-06-26T08:45:18.185Z,315.00
2019-06-26T08:46:18.259Z,315.00
2019-06-26T08:47:18.168Z,315.00
2019-06-26T08:48:37.903Z,315.00
2019-06-26T08:49:25.603Z,315.00
2019-06-26T08:50:19.151Z,315.00
2019-06-26T08:51:18.204Z,315.00
2019-06-26T08:52:18.113Z,315.00
2019-06-26T08:53:18.911Z,315.00
2019-06-26T08:54:18.174Z,315.00
2019-06-26T08:55:18.067Z,320.62
2019-06-26T08:56:18.613Z,320.62
2019-06-26T08:57:18.039Z,320.62
2019-06-26T08:58:18.218Z,315.00
2019-06-26T08:59:18.196Z,315.00
2019-06-26T09:00:18.310Z,315.00
2019-06-26T09:01:18.041Z,315.00
2019-06-26T09:02:18.047Z,315.00
2019-06-26T09:03:18.006Z,315.00
2019-06-26T09:04:18.003Z,315.00
2019-06-26T09:05:17.964Z,315.00
2019-06-26T09:06:18.075Z,320.62
2019-06-26T09:07:17.977Z,326.25
2019-06-26T09:08:18.089Z,326.25
2019-06-26T09:09:17.939Z,326.25
2019-06-26T09:10:28.952Z,331.88
2019-06-26T09:11:18.117Z,331.88
2019-06-26T09:12:18.080Z,337.50
2019-06-26T09:13:18.083Z,337.50
2019-06-26T09:14:18.513Z,337.50
2019-06-26T09:15:17.869Z,337.50
2019-06-26T09:16:17.899Z,337.50
2019-06-26T09:17:17.893Z,337.50
2019-06-26T09:18:34.068Z,337.50
2019-06-26T09:19:18.876Z,343.12
2019-06-26T09:20:17.819Z,343.12
2019-06-26T09:21:17.845Z,343.12
2019-06-26T09:22:17.820Z,343.12
2019-06-26T09:23:18.165Z,348.75
2019-06-26T09:24:17.829Z,343.12
2019-06-26T09:25:22.179Z,343.12
2019-06-26T09:26:17.774Z,337.50
2019-06-26T09:27:18.445Z,331.88
2019-06-26T09:28:17.786Z,337.50
2019-06-26T09:29:17.764Z,331.88
2019-06-26T09:30:17.754Z,331.88
2019-06-26T09:31:17.798Z,337.50
2019-06-26T09:32:18.525Z,337.50
2019-06-26T09:33:17.687Z,348.75
2019-06-26T09:34:17.726Z,348.75
2019-06-26T09:35:17.736Z,354.38
2019-06-26T09:36:28.094Z,354.38
2019-06-26T09:37:18.408Z,354.38
2019-06-26T09:38:17.957Z,354.38
2019-06-26T09:39:18.086Z,348.75
2019-06-26T09:40:17.749Z,348.75
2019-06-26T09:41:19.453Z,348.75
2019-06-26T09:42:19.754Z,354.38
2019-06-26T09:43:17.722Z,360.00
2019-06-26T09:44:17.616Z,371.25
2019-06-26T09:45:17.587Z,376.88
2019-06-26T09:46:17.656Z,376.88
2019-06-26T09:47:17.622Z,382.50
2019-06-26T09:48:17.558Z,388.12
2019-06-26T09:49:17.581Z,376.88
2019-06-26T09:50:17.811Z,371.25
2019-06-26T09:51:17.595Z,371.25
2019-06-26T09:52:17.478Z,376.88
2019-06-26T09:53:17.987Z,382.50
2019-06-26T09:54:17.487Z,382.50
2019-06-26T09:55:17.484Z,382.50
2019-06-26T09:56:17.512Z,393.75
2019-06-26T09:57:17.468Z,399.38
2019-06-26T09:58:17.419Z,405.00
2019-06-26T09:59:17.417Z,410.62
2019-06-26T10:00:17.524Z,388.12
2019-06-26T10:01:17.473Z,427.50
2019-06-26T10:02:17.422Z,416.25
2019-06-26T10:03:17.376Z,444.38
2019-06-26T10:04:17.427Z,433.12
2019-06-26T10:05:17.523Z,450.00
2019-06-26T10:06:17.346Z,427.50
2019-06-26T10:07:17.369Z,421.88
2019-06-26T10:08:17.320Z,405.00
2019-06-26T10:09:17.335Z,388.12
2019-06-26T10:10:17.357Z,365.62
2019-06-26T10:11:17.301Z,365.62
2019-06-26T10:12:17.342Z,343.12
2019-06-26T10:13:17.283Z,348.75
2019-06-26T10:14:17.510Z,376.88
2019-06-26T10:15:17.245Z,382.50
2019-06-26T10:16:17.287Z,393.75
2019-06-26T10:17:17.250Z,399.38
2019-06-26T10:18:17.252Z,399.38
2019-06-26T10:19:17.251Z,393.75
2019-06-26T10:20:17.232Z,371.25
2019-06-26T10:21:17.556Z,371.25
2019-06-26T10:22:17.211Z,365.62
2019-06-26T10:23:18.046Z,365.62
2019-06-26T10:24:17.184Z,365.62
2019-06-26T10:25:17.188Z,371.25
2019-06-26T10:26:17.418Z,371.25
2019-06-26T10:27:17.128Z,382.50
2019-06-26T10:28:17.194Z,382.50
2019-06-26T10:29:17.247Z,382.50
2019-06-26T10:30:17.228Z,376.88
2019-06-26T10:31:18.537Z,376.88
2019-06-26T10:32:17.090Z,371.25
2019-06-26T10:33:17.072Z,376.88
2019-06-26T10:34:17.140Z,376.88
2019-06-26T10:35:17.137Z,376.88
2019-06-26T10:36:17.053Z,376.88
2019-06-26T10:37:17.057Z,382.50
2019-06-26T10:38:17.016Z,382.50
2019-06-26T10:39:17.048Z,382.50
2019-06-26T10:40:17.037Z,388.12
2019-06-26T10:41:16.994Z,399.38
2019-06-26T10:42:17.000Z,405.00
2019-06-26T10:43:17.041Z,405.00
2019-06-26T10:44:16.998Z,399.38
2019-06-26T10:45:16.942Z,393.75
2019-06-26T10:46:16.936Z,393.75
2019-06-26T10:47:16.963Z,393.75
2019-06-26T10:48:16.923Z,399.38
2019-06-26T10:49:27.117Z,399.38
2019-06-26T10:50:17.916Z,399.38
2019-06-26T10:51:18.545Z,399.38
2019-06-26T10:52:16.923Z,405.00
2019-06-26T10:53:17.502Z,405.00
2019-06-26T10:54:16.864Z,416.25
2019-06-26T10:55:16.959Z,427.50
2019-06-26T10:56:16.979Z,438.75
2019-06-26T10:57:17.502Z,444.38
2019-06-26T10:58:16.841Z,450.00
2019-06-26T10:59:16.849Z,455.62
2019-06-26T11:00:16.812Z,489.38
2019-06-26T11:01:17.626Z,517.50
2019-06-26T11:02:17.509Z,573.75
2019-06-26T11:03:16.775Z,568.12
2019-06-26T11:04:16.824Z,540.00
2019-06-26T11:05:16.817Z,540.00
2019-06-26T11:06:16.751Z,607.50
2019-06-26T11:07:16.729Z,691.88
2019-06-26T11:08:16.754Z,725.62
2019-06-26T11:09:16.697Z,630.00
2019-06-26T11:10:16.759Z,607.50
2019-06-26T11:11:16.772Z,652.50
2019-06-26T11:12:16.679Z,641.25
2019-06-26T11:13:16.687Z,658.12
2019-06-26T11:14:16.763Z,697.50
2019-06-26T11:15:16.695Z,736.88
2019-06-26T11:16:16.662Z,720.00
2019-06-26T11:17:16.651Z,708.75
2019-06-26T11:18:16.623Z,753.75
2019-06-26T11:19:16.630Z,781.88
2019-06-26T11:20:16.576Z,720.00
2019-06-26T11:21:16.594Z,641.25
2019-06-26T11:22:16.660Z,489.38
2019-06-26T11:23:16.607Z,450.00
2019-06-26T11:24:16.585Z,540.00
2019-06-26T11:25:16.568Z,641.25
2019-06-26T11:26:16.544Z,714.38
2019-06-26T11:27:16.623Z,658.12
2019-06-26T11:28:16.510Z,669.38
2019-06-26T11:29:16.504Z,725.62
2019-06-26T11:30:16.566Z,658.12
2019-06-26T11:31:16.492Z,641.25
2019-06-26T11:32:16.521Z,613.12
2019-06-26T11:33:16.475Z,585.00
2019-06-26T11:34:16.474Z,607.50
2019-06-26T11:35:16.463Z,641.25
2019-06-26T11:36:16.439Z,680.62
2019-06-26T11:56:12.052Z,4736.25
2019-06-26T11:56:40.153Z,736.88
2019-06-26T11:58:15.052Z,562.50
2019-06-26T11:58:38.701Z,1029.38
2019-06-26T11:59:38.372Z,596.25
2019-06-26T12:00:41.458Z,708.75
2019-06-26T12:01:42.251Z,3712.50
2019-06-26T12:02:56.896Z,483.75
2019-06-26T12:03:38.290Z,4196.25
2019-06-26T12:04:38.363Z,4505.62
2019-06-26T12:05:39.290Z,4674.38
2019-06-26T12:06:39.149Z,4983.75
2019-06-26T12:07:38.299Z,4944.38
2019-06-26T12:08:38.288Z,4629.38
2019-06-26T12:09:38.248Z,4410.00
2019-06-26T12:10:38.251Z,540.00
2019-06-26T12:11:38.262Z,3903.75
2019-06-26T12:12:38.229Z,444.38
2019-06-26T12:13:38.207Z,444.38
2019-06-26T12:14:38.250Z,472.50
2019-06-26T12:15:38.670Z,450.00
2019-06-26T12:16:38.183Z,466.88
2019-06-26T12:17:38.255Z,630.00
2019-06-26T12:18:38.180Z,770.62
2019-06-26T12:19:38.163Z,3476.25
2019-06-26T12:20:38.176Z,4421.25
2019-06-26T12:21:38.153Z,1760.62
2019-06-26T12:22:38.230Z,3470.62
2019-06-26T12:23:38.134Z,4376.25
2019-06-26T12:24:40.159Z,4511.25
2019-06-26T12:25:38.194Z,4348.12
2019-06-26T12:26:38.060Z,495.00
2019-06-26T12:27:38.070Z,523.12
2019-06-26T12:28:38.083Z,1175.62
2019-06-26T12:29:38.083Z,1023.75
2019-06-26T12:30:38.658Z,4623.75
2019-06-26T12:31:38.111Z,4584.38
2019-06-26T12:32:42.290Z,4539.38
2019-06-26T12:33:39.039Z,4488.75
2019-06-26T12:34:38.008Z,4657.50
2019-06-26T12:35:38.008Z,4798.12
2019-06-26T12:36:37.975Z,4837.50
2019-06-26T12:37:38.422Z,4314.38
2019-06-26T12:38:39.248Z,3695.62
2019-06-26T12:39:38.009Z,1687.50
2019-06-26T12:40:37.966Z,3043.12
2019-06-26T12:41:37.959Z,3633.75
2019-06-26T12:42:37.957Z,3886.88
2019-06-26T12:43:37.962Z,624.38
2019-06-26T12:44:37.939Z,2739.38
2019-06-26T12:45:37.963Z,5231.25
2019-06-26T12:46:37.875Z,5270.62
2019-06-26T12:47:37.866Z,4871.25
2019-06-26T12:48:37.888Z,714.38
2019-06-26T12:49:38.667Z,4342.50
2019-06-26T12:50:37.887Z,579.38
2019-06-26T12:51:37.857Z,4117.50
2019-06-26T12:52:37.800Z,4275.00
2019-06-26T12:53:37.848Z,4314.38
2019-06-26T12:54:37.846Z,4471.88
2019-06-26T12:55:37.842Z,4623.75
2019-06-26T12:56:37.846Z,4522.50
2019-06-26T12:57:37.822Z,4623.75
2019-06-26T12:58:37.800Z,4702.50
2019-06-26T12:59:37.803Z,4713.75
2019-06-26T13:00:37.814Z,5135.62
2019-06-26T13:01:37.795Z,4893.75
2019-06-26T13:02:37.770Z,4314.38